createdAt,value
2018-08-22T00:00:55.280Z,21.00
2018-08-22T00:03:22.905Z,21.10
2018-08-22T00:05:50.235Z,21.00
2018-08-22T00:08:22.204Z,21.00
2018-08-22T00:10:49.460Z,21.00
2018-08-22T00:13:20.076Z,20.90
2018-08-22T00:15:47.410Z,20.90
2018-08-22T00:18:14.809Z,20.90
2018-08-22T00:20:42.076Z,20.50
2018-08-22T00:23:09.321Z,20.80
2018-08-22T00:25:36.613Z,20.80
2018-08-22T00:28:04.334Z,20.80
2018-08-22T00:30:31.564Z,20.80
2018-08-22T00:32:58.944Z,21.10
2018-08-22T00:35:26.182Z,20.60
2018-08-22T00:37:53.416Z,20.60
2018-08-22T00:40:21.019Z,20.60
2018-08-22T00:42:48.312Z,20.60
2018-08-22T00:45:15.598Z,20.60
2018-08-22T00:47:42.885Z,20.60
2018-08-22T00:50:10.141Z,20.50
2018-08-22T00:52:38.474Z,20.50
2018-08-22T00:55:05.718Z,20.50
2018-08-22T00:57:33.021Z,20.50
2018-08-22T01:00:00.300Z,20.50
2018-08-22T01:02:28.643Z,20.50
2018-08-22T01:04:55.897Z,20.50
2018-08-22T01:07:23.155Z,20.50
2018-08-22T01:09:50.365Z,20.40
2018-08-22T01:12:17.617Z,20.40
2018-08-22T01:14:44.872Z,20.40
2018-08-22T01:17:12.120Z,20.50
2018-08-22T01:22:14.517Z,20.40
2018-08-22T01:24:41.799Z,20.50
2018-08-22T01:27:13.633Z,20.40
2018-08-22T01:29:40.973Z,20.50
2018-08-22T01:32:08.233Z,20.60
2018-08-22T01:34:35.647Z,20.50
2018-08-22T01:37:03.021Z,20.40
2018-08-22T01:39:30.452Z,20.40
2018-08-22T01:41:57.812Z,20.40
2018-08-22T01:44:25.116Z,20.40
2018-08-22T01:46:52.345Z,20.40
2018-08-22T01:49:19.692Z,20.40
2018-08-22T01:51:47.023Z,20.50
2018-08-22T01:54:14.313Z,20.40
2018-08-22T01:56:41.581Z,20.40
2018-08-22T01:59:08.897Z,20.40
2018-08-22T02:01:36.241Z,20.40
2018-08-22T02:04:03.614Z,20.10
2018-08-22T02:06:37.205Z,20.30
2018-08-22T02:09:07.419Z,20.20
2018-08-22T02:11:34.749Z,20.20
2018-08-22T02:14:02.041Z,19.80
2018-08-22T02:16:29.499Z,20.20
2018-08-22T02:18:56.800Z,20.60
2018-08-22T02:21:24.133Z,20.40
2018-08-22T02:23:51.573Z,20.20
2018-08-22T02:26:18.887Z,20.20
2018-08-22T02:28:46.194Z,20.60
2018-08-22T02:31:13.418Z,20.20
2018-08-22T02:33:40.781Z,20.20
2018-08-22T02:36:08.124Z,20.10
2018-08-22T02:38:35.350Z,20.60
2018-08-22T02:41:02.618Z,20.00
2018-08-22T02:43:29.882Z,20.00
2018-08-22T02:45:57.894Z,20.00
2018-08-22T02:48:25.159Z,20.00
2018-08-22T02:50:52.506Z,20.00
2018-08-22T02:53:19.775Z,20.00
2018-08-22T02:55:47.074Z,19.90
2018-08-22T02:58:14.352Z,19.90
2018-08-22T03:00:41.794Z,19.90
2018-08-22T03:03:09.095Z,19.80
2018-08-22T03:05:36.457Z,19.80
2018-08-22T03:08:04.085Z,19.80
2018-08-22T03:10:31.325Z,19.80
2018-08-22T03:12:58.741Z,19.80
2018-08-22T03:15:26.064Z,19.80
2018-08-22T03:17:53.332Z,20.00
2018-08-22T03:20:20.735Z,19.80
2018-08-22T03:22:47.960Z,19.90
2018-08-22T03:25:15.220Z,19.60
2018-08-22T03:27:42.468Z,19.60
2018-08-22T03:30:11.923Z,19.70
2018-08-22T03:32:39.195Z,19.70
2018-08-22T03:35:06.476Z,19.60
2018-08-22T03:37:33.757Z,19.60
2018-08-22T03:40:01.121Z,19.90
2018-08-22T03:42:28.602Z,19.70
2018-08-22T03:44:56.756Z,19.60
2018-08-22T03:47:23.989Z,19.70
2018-08-22T03:49:51.247Z,19.70
2018-08-22T03:52:18.472Z,19.50
2018-08-22T03:54:45.745Z,19.60
2018-08-22T03:57:12.977Z,19.70
2018-08-22T03:59:40.298Z,19.70
2018-08-22T04:02:07.536Z,19.80
2018-08-22T04:04:37.468Z,19.80
2018-08-22T04:07:04.709Z,19.80
2018-08-22T04:09:31.954Z,19.90
2018-08-22T04:11:59.710Z,19.60
2018-08-22T04:14:27.828Z,19.90
2018-08-22T04:16:55.194Z,19.90
2018-08-22T04:19:24.144Z,19.90
2018-08-22T04:21:51.385Z,19.90
2018-08-22T04:24:18.693Z,19.90
2018-08-22T04:26:45.958Z,20.00
2018-08-22T04:29:13.703Z,20.00
2018-08-22T04:31:41.052Z,20.00
2018-08-22T04:34:08.371Z,20.00
2018-08-22T04:36:35.640Z,20.00
2018-08-22T04:39:04.001Z,20.10
2018-08-22T04:41:31.553Z,20.10
2018-08-22T04:43:58.933Z,20.10
2018-08-22T04:46:26.252Z,20.30
2018-08-22T04:48:54.011Z,20.10
2018-08-22T04:51:21.294Z,20.10
2018-08-22T04:53:48.577Z,20.10
2018-08-22T04:56:15.892Z,20.10
2018-08-22T04:58:43.201Z,20.10
2018-08-22T05:01:10.489Z,20.10
2018-08-22T05:03:37.817Z,20.20
2018-08-22T05:06:05.542Z,20.00
2018-08-22T05:08:32.696Z,20.20
2018-08-22T05:11:00.051Z,20.20
2018-08-22T05:13:27.445Z,20.20
2018-08-22T05:15:54.937Z,20.20
2018-08-22T05:18:22.335Z,20.20
2018-08-22T05:20:49.628Z,20.20
2018-08-22T05:23:17.018Z,20.20
2018-08-22T05:25:44.983Z,20.20
2018-08-22T05:28:12.866Z,20.20
2018-08-22T05:30:40.586Z,20.50
2018-08-22T05:33:07.856Z,20.30
2018-08-22T05:35:35.122Z,20.20
2018-08-22T05:38:02.366Z,20.60
2018-08-22T05:40:34.768Z,20.30
2018-08-22T05:43:02.014Z,20.10
2018-08-22T05:45:29.406Z,20.00
2018-08-22T05:47:56.675Z,20.40
2018-08-22T05:50:23.925Z,20.40
2018-08-22T05:52:51.152Z,20.40
2018-08-22T05:55:18.454Z,20.40
2018-08-22T05:57:45.729Z,20.40
2018-08-22T06:00:12.988Z,20.40
2018-08-22T06:02:46.274Z,20.50
2018-08-22T06:05:13.581Z,20.50
2018-08-22T06:07:40.813Z,20.50
2018-08-22T06:10:08.058Z,20.90
2018-08-22T06:12:42.237Z,20.60
2018-08-22T06:15:09.523Z,21.00
2018-08-22T06:17:36.762Z,20.80
2018-08-22T06:20:04.330Z,20.80
2018-08-22T06:22:31.590Z,21.20
2018-08-22T06:24:58.837Z,20.90
2018-08-22T06:27:26.125Z,21.00
2018-08-22T06:29:53.351Z,21.00
2018-08-22T06:32:20.593Z,21.10
2018-08-22T06:34:48.509Z,21.20
2018-08-22T06:37:15.753Z,21.30
2018-08-22T06:39:43.006Z,21.40
2018-08-22T06:42:10.322Z,21.40
2018-08-22T06:44:37.563Z,21.60
2018-08-22T06:47:05.177Z,21.20
2018-08-22T06:49:32.506Z,21.70
2018-08-22T06:51:59.845Z,21.70
2018-08-22T06:54:27.199Z,21.90
2018-08-22T06:56:54.454Z,22.00
2018-08-22T06:59:22.258Z,22.10
2018-08-22T07:01:49.522Z,22.30
2018-08-22T07:04:16.837Z,22.30
2018-08-22T07:06:44.090Z,22.40
2018-08-22T07:09:11.798Z,22.60
2018-08-22T07:11:39.134Z,22.70
2018-08-22T07:14:06.771Z,22.80
2018-08-22T07:16:34.021Z,22.60
2018-08-22T07:19:01.343Z,23.10
2018-08-22T07:21:28.900Z,23.10
2018-08-22T07:23:56.238Z,22.90
2018-08-22T07:26:25.318Z,23.30
2018-08-22T07:28:52.585Z,23.10
2018-08-22T07:31:19.847Z,23.30
2018-08-22T07:33:47.242Z,23.40
2018-08-22T07:36:14.517Z,23.70
2018-08-22T07:38:41.811Z,24.00
2018-08-22T07:41:10.501Z,24.40
2018-08-22T07:43:37.758Z,24.40
2018-08-22T07:46:05.175Z,24.80
2018-08-22T07:48:32.533Z,25.50
2018-08-22T07:50:59.870Z,26.70
2018-08-22T07:53:31.730Z,28.20
2018-08-22T07:55:59.076Z,29.70
2018-08-22T07:58:26.365Z,31.00
2018-08-22T08:00:53.645Z,32.10
2018-08-22T08:03:20.914Z,33.30
2018-08-22T08:05:48.359Z,34.20
2018-08-22T08:08:15.651Z,35.40
2018-08-22T08:10:42.957Z,36.10
2018-08-22T08:13:42.416Z,36.80
2018-08-22T08:16:09.812Z,37.80
2018-08-22T08:18:39.090Z,38.50
2018-08-22T08:21:06.432Z,39.20
2018-08-22T08:23:33.814Z,39.30
2018-08-22T08:26:01.171Z,39.70
2018-08-22T08:28:28.860Z,39.80
2018-08-22T08:30:56.155Z,39.50
2018-08-22T08:33:23.439Z,38.80
2018-08-22T08:35:51.428Z,38.00
2018-08-22T08:38:18.514Z,36.50
2018-08-22T08:40:45.835Z,35.10
2018-08-22T08:43:13.185Z,33.60
2018-08-22T08:45:40.746Z,32.20
2018-08-22T08:48:08.225Z,31.10
2018-08-22T08:50:35.510Z,30.30
2018-08-22T08:53:02.817Z,29.70
2018-08-22T08:55:32.393Z,29.50
2018-08-22T08:57:59.693Z,29.40
2018-08-22T09:00:28.071Z,29.10
2018-08-22T09:02:55.389Z,28.90
2018-08-22T09:05:22.684Z,28.60
2018-08-22T09:07:54.992Z,28.50
2018-08-22T09:10:22.301Z,28.60
2018-08-22T09:12:49.598Z,28.60
2018-08-22T09:15:16.945Z,28.60
2018-08-22T09:17:44.266Z,28.80
2018-08-22T09:20:13.456Z,28.80
2018-08-22T09:22:42.373Z,28.40
2018-08-22T09:25:11.280Z,28.20
2018-08-22T09:27:38.559Z,28.00
2018-08-22T09:30:05.876Z,27.80
2018-08-22T09:32:33.178Z,27.70
2018-08-22T09:35:00.486Z,27.80
2018-08-22T09:37:29.664Z,27.80
2018-08-22T09:39:57.244Z,27.80
2018-08-22T09:42:24.533Z,27.80
2018-08-22T09:44:51.913Z,27.80
2018-08-22T09:47:19.209Z,27.80
2018-08-22T09:49:48.763Z,27.80
2018-08-22T09:52:17.863Z,28.00
2018-08-22T09:54:55.022Z,27.90
2018-08-22T09:57:23.421Z,28.00
2018-08-22T09:59:55.171Z,28.40
2018-08-22T10:02:22.504Z,28.70
2018-08-22T10:04:49.789Z,28.90
2018-08-22T10:07:17.107Z,29.00
2018-08-22T10:09:44.415Z,29.20
2018-08-22T10:12:11.900Z,29.30
2018-08-22T10:14:42.733Z,29.30
2018-08-22T10:17:10.006Z,29.30
2018-08-22T10:19:37.328Z,29.50
2018-08-22T10:22:04.703Z,29.60
2018-08-22T10:24:32.109Z,29.90
2018-08-22T10:26:59.464Z,30.00
2018-08-22T10:29:30.100Z,30.00
2018-08-22T10:31:57.406Z,29.90
2018-08-22T10:34:24.627Z,29.80
2018-08-22T10:36:51.932Z,29.80
2018-08-22T10:39:19.170Z,29.90
2018-08-22T10:41:46.463Z,30.00
2018-08-22T10:44:15.793Z,30.00
2018-08-22T10:46:43.115Z,29.90
2018-08-22T10:49:10.374Z,30.00
2018-08-22T10:51:37.603Z,30.10
2018-08-22T10:54:05.204Z,30.30
2018-08-22T10:59:04.866Z,30.30
2018-08-22T11:01:32.211Z,30.30
2018-08-22T11:03:59.691Z,30.30
2018-08-22T11:06:27.257Z,30.20
2018-08-22T11:08:54.591Z,30.20
2018-08-22T11:11:26.381Z,30.00
2018-08-22T11:13:53.724Z,30.00
2018-08-22T11:16:20.982Z,30.10
2018-08-22T11:18:48.234Z,30.30
2018-08-22T11:21:28.854Z,30.50
2018-08-22T11:24:08.032Z,30.70
2018-08-22T11:26:47.645Z,30.80
2018-08-22T11:29:26.723Z,31.00
2018-08-22T11:32:06.877Z,30.90
2018-08-22T11:34:41.731Z,30.90
2018-08-22T11:37:11.122Z,30.90
2018-08-22T11:39:38.451Z,30.50
2018-08-22T11:42:06.109Z,30.50
2018-08-22T11:44:35.406Z,30.40
2018-08-22T11:47:02.720Z,30.50
2018-08-22T11:49:30.881Z,30.50
2018-08-22T11:51:58.598Z,30.50
2018-08-22T11:54:25.902Z,30.50
2018-08-22T11:56:53.238Z,30.50
2018-08-22T11:59:23.051Z,30.50
2018-08-22T12:01:53.394Z,30.60
2018-08-22T12:04:20.697Z,30.60
2018-08-22T12:06:48.026Z,30.90
2018-08-22T12:09:15.506Z,30.80
2018-08-22T12:11:43.134Z,30.80
2018-08-22T12:16:43.402Z,30.70
2018-08-22T12:19:11.067Z,30.70
2018-08-22T12:21:39.009Z,30.90
2018-08-22T12:24:06.384Z,31.00
2018-08-22T12:26:33.751Z,31.00
2018-08-22T12:29:04.905Z,30.90
2018-08-22T12:31:32.403Z,31.00
2018-08-22T12:33:59.736Z,31.00
2018-08-22T12:36:27.338Z,31.10
2018-08-22T12:38:54.717Z,31.50
2018-08-22T12:41:22.272Z,31.40
2018-08-22T12:43:49.587Z,31.30
2018-08-22T12:46:18.460Z,31.40
2018-08-22T12:48:45.790Z,31.20
2018-08-22T12:51:13.880Z,31.50
2018-08-22T12:53:41.269Z,31.40
2018-08-22T12:56:08.521Z,31.40
2018-08-22T12:58:40.647Z,31.30
2018-08-22T13:01:08.216Z,31.70
2018-08-22T13:03:35.494Z,31.60
2018-08-22T13:06:02.758Z,31.50
2018-08-22T13:08:30.077Z,31.40
2018-08-22T13:10:57.406Z,31.60
2018-08-22T13:13:29.535Z,31.80
2018-08-22T13:15:56.846Z,31.70
2018-08-22T13:18:24.322Z,31.50
2018-08-22T13:20:51.572Z,31.90
2018-08-22T13:23:18.857Z,31.70
2018-08-22T13:25:46.168Z,31.60
2018-08-22T13:28:15.905Z,31.80
2018-08-22T13:30:43.269Z,31.80
2018-08-22T13:33:10.570Z,31.90
2018-08-22T13:35:37.894Z,31.80
2018-08-22T13:38:05.274Z,31.70
2018-08-22T13:40:32.606Z,31.70
2018-08-22T13:43:03.533Z,31.70
2018-08-22T13:45:30.827Z,31.80
2018-08-22T13:47:58.135Z,31.80
2018-08-22T13:50:25.464Z,31.90
2018-08-22T13:52:53.076Z,31.80
2018-08-22T13:55:22.434Z,31.70
2018-08-22T13:57:49.705Z,31.70
2018-08-22T14:00:17.021Z,31.60
2018-08-22T14:02:44.448Z,31.70
2018-08-22T14:05:11.976Z,31.70
2018-08-22T14:07:39.354Z,31.70
2018-08-22T14:10:06.801Z,31.80
2018-08-22T14:12:39.883Z,31.70
2018-08-22T14:15:07.281Z,31.70
2018-08-22T14:17:34.623Z,31.80
2018-08-22T14:20:02.082Z,31.70
2018-08-22T14:22:29.617Z,31.60
2018-08-22T14:25:01.087Z,31.70
2018-08-22T14:27:28.623Z,31.70
2018-08-22T14:29:56.000Z,31.70
2018-08-22T14:32:23.509Z,31.70
2018-08-22T14:34:50.952Z,31.60
2018-08-22T14:37:18.349Z,31.50
2018-08-22T14:39:45.766Z,31.70
2018-08-22T14:42:13.063Z,31.60
2018-08-22T14:44:40.413Z,31.60
2018-08-22T14:47:07.747Z,31.60
2018-08-22T14:49:35.036Z,31.60
2018-08-22T14:52:03.027Z,31.60
2018-08-22T14:54:45.317Z,31.70
2018-08-22T14:57:13.281Z,31.80
2018-08-22T14:59:40.693Z,31.80
2018-08-22T15:02:09.383Z,31.80
2018-08-22T15:04:37.239Z,31.70
2018-08-22T15:07:04.715Z,31.70
2018-08-22T15:09:32.097Z,31.70
2018-08-22T15:11:59.510Z,31.70
2018-08-22T15:14:26.874Z,31.60
2018-08-22T15:16:54.193Z,31.50
2018-08-22T15:19:21.590Z,31.50
2018-08-22T15:21:49.091Z,31.60
2018-08-22T15:24:16.590Z,31.40
2018-08-22T15:26:48.972Z,31.40
2018-08-22T15:29:16.463Z,31.40
2018-08-22T15:31:44.674Z,31.40
2018-08-22T15:34:12.240Z,31.50
2018-08-22T15:36:39.738Z,31.50
2018-08-22T15:39:08.230Z,31.40
2018-08-22T15:41:35.491Z,31.40
2018-08-22T15:44:02.807Z,31.30
2018-08-22T15:46:30.521Z,31.20
2018-08-22T15:48:57.974Z,31.50
2018-08-22T15:51:25.303Z,31.40
2018-08-22T15:54:06.770Z,31.20
2018-08-22T15:56:35.073Z,31.30
2018-08-22T15:59:02.651Z,31.10
2018-08-22T16:01:30.442Z,31.00
2018-08-22T16:03:57.812Z,31.20
2018-08-22T16:06:25.346Z,31.10
2018-08-22T16:08:52.783Z,31.10
2018-08-22T16:11:20.155Z,31.10
2018-08-22T16:13:47.459Z,30.90
2018-08-22T16:16:14.897Z,31.00
2018-08-22T16:18:42.170Z,31.00
2018-08-22T16:21:11.097Z,31.00
2018-08-22T16:23:38.418Z,31.00
2018-08-22T16:26:05.838Z,30.90
2018-08-22T16:28:47.913Z,30.80
2018-08-22T16:31:15.449Z,30.80
2018-08-22T16:33:47.817Z,30.90
2018-08-22T16:36:19.987Z,30.70
2018-08-22T16:38:47.731Z,30.60
2018-08-22T16:41:16.409Z,30.50
2018-08-22T16:43:44.572Z,30.60
2018-08-22T16:46:14.871Z,30.50
2018-08-22T16:48:43.958Z,30.40
2018-08-22T16:51:11.280Z,30.50
2018-08-22T16:53:38.682Z,30.40
2018-08-22T16:56:06.090Z,30.40
2018-08-22T16:58:33.419Z,30.20
2018-08-22T17:01:01.213Z,30.20
2018-08-22T17:03:28.749Z,30.30
2018-08-22T17:06:02.087Z,30.10
2018-08-22T17:08:29.760Z,30.00
2018-08-22T17:11:00.825Z,30.00
2018-08-22T17:13:45.265Z,30.00
2018-08-22T17:16:13.674Z,30.00
2018-08-22T17:18:41.064Z,30.00
2018-08-22T17:21:08.755Z,29.90
2018-08-22T17:23:36.713Z,29.70
2018-08-22T17:26:04.457Z,29.70
2018-08-22T17:28:36.910Z,29.40
2018-08-22T17:31:04.415Z,29.60
2018-08-22T17:33:35.872Z,29.60
2018-08-22T17:36:03.322Z,29.50
2018-08-22T17:38:30.734Z,29.50
2018-08-22T17:40:58.321Z,29.50
2018-08-22T17:43:25.737Z,29.40
2018-08-22T17:45:53.076Z,29.40
2018-08-22T17:48:21.451Z,29.30
2018-08-22T17:50:51.976Z,29.10
2018-08-22T17:53:19.316Z,29.30
2018-08-22T17:55:48.474Z,29.30
2018-08-22T17:58:15.854Z,29.20
2018-08-22T18:00:43.205Z,29.10
2018-08-22T18:03:10.537Z,29.00
2018-08-22T18:05:37.925Z,28.90
2018-08-22T18:08:06.561Z,28.80
2018-08-22T18:10:37.602Z,28.70
2018-08-22T18:13:10.913Z,28.70
2018-08-22T18:15:39.560Z,28.70
2018-08-22T18:18:07.092Z,28.20
2018-08-22T18:20:47.188Z,28.50
2018-08-22T18:23:15.349Z,28.50
2018-08-22T18:25:55.074Z,28.40
2018-08-22T18:28:22.855Z,28.40
2018-08-22T18:30:50.478Z,28.30
2018-08-22T18:33:17.902Z,28.20
2018-08-22T18:35:45.819Z,28.20
2018-08-22T18:38:13.628Z,28.10
2018-08-22T18:40:41.140Z,28.10
2018-08-22T18:43:08.984Z,28.10
2018-08-22T18:45:51.083Z,28.10
2018-08-22T18:48:18.454Z,28.00
2018-08-22T18:50:45.974Z,27.90
2018-08-22T18:53:14.664Z,27.90
2018-08-22T18:55:42.086Z,27.80
2018-08-22T18:58:09.415Z,27.70
2018-08-22T19:00:37.732Z,27.60
2018-08-22T19:03:05.093Z,27.50
2018-08-22T19:05:35.568Z,27.40
2018-08-22T19:08:12.026Z,27.40
2018-08-22T19:10:40.676Z,27.30
2018-08-22T19:13:09.998Z,27.20
2018-08-22T19:15:37.442Z,27.20
2018-08-22T19:18:06.275Z,27.10
2018-08-22T19:20:36.173Z,27.10
2018-08-22T19:23:03.549Z,27.00
2018-08-22T19:25:30.971Z,26.90
2018-08-22T19:28:00.034Z,26.80
2018-08-22T19:30:27.322Z,26.70
2018-08-22T19:32:59.781Z,26.70
2018-08-22T19:35:27.717Z,26.60
2018-08-22T19:38:00.808Z,26.50
2018-08-22T19:40:28.161Z,26.50
2018-08-22T19:43:01.482Z,26.40
2018-08-22T19:45:28.933Z,26.40
2018-08-22T19:47:56.630Z,26.30
2018-08-22T19:50:24.018Z,26.30
2018-08-22T19:52:51.342Z,26.20
2018-08-22T19:55:21.748Z,26.20
2018-08-22T19:57:49.270Z,26.20
2018-08-22T20:00:16.633Z,26.10
2018-08-22T20:02:44.055Z,26.10
2018-08-22T20:05:11.943Z,26.00
2018-08-22T20:07:43.852Z,25.90
2018-08-22T20:10:11.335Z,25.60
2018-08-22T20:12:45.418Z,25.80
2018-08-22T20:15:12.966Z,25.70
2018-08-22T20:20:13.004Z,25.70
2018-08-22T20:22:41.528Z,25.60
2018-08-22T20:25:09.301Z,25.50
2018-08-22T20:27:36.887Z,25.00
2018-08-22T20:30:10.820Z,25.80
2018-08-22T20:32:49.648Z,25.40
2018-08-22T20:35:24.825Z,25.50
2018-08-22T20:37:58.348Z,25.30
2018-08-22T20:40:25.780Z,25.20
2018-08-22T20:42:53.073Z,25.20
2018-08-22T20:45:27.314Z,25.60
2018-08-22T20:48:05.834Z,25.10
2018-08-22T20:50:33.880Z,25.20
2018-08-22T20:53:05.474Z,25.00
2018-08-22T20:55:32.922Z,25.00
2018-08-22T20:58:04.395Z,24.90
2018-08-22T21:00:33.189Z,24.90
2018-08-22T21:03:00.503Z,24.80
2018-08-22T21:05:27.862Z,24.80
2018-08-22T21:07:55.547Z,24.80
2018-08-22T21:10:22.870Z,24.70
2018-08-22T21:12:52.930Z,25.10
2018-08-22T21:15:20.249Z,24.70
2018-08-22T21:17:47.548Z,24.70
2018-08-22T21:20:30.844Z,24.60
2018-08-22T21:22:58.118Z,24.60
2018-08-22T21:25:28.352Z,24.60
2018-08-22T21:27:55.728Z,24.50
2018-08-22T21:30:23.058Z,24.40
2018-08-22T21:32:50.372Z,24.40
2018-08-22T21:35:25.458Z,24.40
2018-08-22T21:37:55.243Z,24.40
2018-08-22T21:40:22.666Z,24.30
2018-08-22T21:42:50.494Z,24.30
2018-08-22T21:45:17.810Z,24.20
2018-08-22T21:47:45.164Z,24.20
2018-08-22T21:50:12.548Z,24.10
2018-08-22T21:52:58.215Z,24.20
2018-08-22T21:55:30.296Z,24.00
2018-08-22T21:57:58.146Z,24.00
2018-08-22T22:00:27.749Z,24.00
2018-08-22T22:02:57.768Z,23.90
2018-08-22T22:05:37.430Z,23.90
2018-08-22T22:08:05.319Z,23.90
2018-08-22T22:10:32.704Z,23.90
2018-08-22T22:13:00.121Z,23.80
2018-08-22T22:15:33.402Z,23.80
2018-08-22T22:18:00.766Z,23.70
2018-08-22T22:20:28.129Z,23.90
2018-08-22T22:22:55.585Z,23.60
2018-08-22T22:25:22.868Z,23.60
2018-08-22T22:27:50.139Z,23.60
2018-08-22T22:30:18.046Z,23.60
2018-08-22T22:32:45.476Z,23.50
2018-08-22T22:35:16.240Z,23.50
2018-08-22T22:37:43.547Z,23.50
2018-08-22T22:40:10.907Z,23.40
2018-08-22T22:42:38.206Z,23.40
2018-08-22T22:45:05.667Z,23.40
2018-08-22T22:47:33.893Z,23.30
2018-08-22T22:50:07.715Z,23.30
2018-08-22T22:52:40.992Z,23.30
2018-08-22T22:55:09.270Z,23.20
2018-08-22T22:57:37.961Z,23.20
2018-08-22T23:00:08.177Z,23.20
2018-08-22T23:02:36.277Z,23.10
2018-08-22T23:05:04.384Z,23.10
2018-08-22T23:07:36.440Z,23.10
2018-08-22T23:10:05.950Z,23.10
2018-08-22T23:12:48.779Z,23.20
2018-08-22T23:15:23.787Z,23.10
2018-08-22T23:17:53.862Z,23.20
2018-08-22T23:20:42.119Z,23.20
2018-08-22T23:23:28.538Z,23.20
2018-08-22T23:26:05.949Z,23.20
2018-08-22T23:28:33.929Z,23.20
2018-08-22T23:31:01.802Z,23.10
2018-08-22T23:33:29.448Z,23.10
2018-08-22T23:35:58.290Z,23.10
2018-08-22T23:38:31.548Z,23.10
2018-08-22T23:40:59.251Z,23.10
2018-08-22T23:43:34.076Z,23.10
2018-08-22T23:46:01.366Z,23.10
2018-08-22T23:48:32.704Z,23.10
2018-08-22T23:51:07.325Z,23.10
2018-08-22T23:53:40.447Z,23.10
2018-08-22T23:56:17.765Z,23.30
2018-08-22T23:58:46.111Z,23.10
